| time (UTC) | temp C | wind direction | speed KPH | gust KPH | rain 1hr cm | rain 24hr cm | rain mn cm | humidity % | barometer mb |
| 20260507065844 | 4 | 10 | 8.0 | 14.5 | 0.00 | 0.00 | 0.00 | 57 | 1012.8 |
| 20260507065340 | 4 | 29 | 6.4 | 14.5 | 0.00 | 0.00 | 0.00 | 57 | 1012.6 |
| 20260507064837 | 3 | 322 | 9.7 | 14.5 | 0.00 | 0.00 | 0.00 | 57 | 1012.7 |
| 20260507064336 | 3 | 19 | 8.0 | 17.7 | 0.00 | 0.00 | 0.00 | 57 | 1012.5 |
| 20260507063833 | 3 | 29 | 8.0 | 14.5 | 0.00 | 0.00 | 0.00 | 57 | 1012.4 |
| 20260507063330 | 3 | 352 | 1.6 | 12.9 | 0.00 | 0.00 | 0.00 | 57 | 1012.4 |
| 20260507062827 | 3 | 16 | 4.8 | 11.3 | 0.00 | 0.00 | 0.00 | 57 | 1012.4 |
| 20260507062324 | 3 | 344 | 4.8 | 9.7 | 0.00 | 0.00 | 0.00 | 57 | 1012.3 |
| 20260507061822 | 3 | 26 | 6.4 | 12.9 | 0.00 | 0.00 | 0.00 | 57 | 1012.5 |
| 20260507061320 | 3 | 350 | 4.8 | 9.7 | 0.00 | 0.00 | 0.00 | 57 | 1012.5 |
| 20260507060818 | 3 | 341 | 3.2 | 9.7 | 0.00 | 0.00 | 0.00 | 57 | 1012.4 |
| 20260507060314 | 3 | 338 | 4.8 | 9.7 | 0.00 | 0.00 | 0.00 | 57 | 1012.3 |
| 20260507055811 | 3 | 329 | 8.0 | 11.3 | 0.00 | 0.00 | 0.00 | 57 | 1012.1 |
| 20260507055306 | 2 | 36 | 8.0 | 11.3 | 0.00 | 0.00 | 0.00 | 56 | 1012.2 |
| 20260507054803 | 2 | 326 | 6.4 | 9.7 | 0.00 | 0.00 | 0.00 | 56 | 1012.2 |
| 20260507054259 | 2 | 350 | 4.8 | 11.3 | 0.00 | 0.00 | 0.00 | 56 | 1012.2 |
| 20260507053757 | 2 | 25 | 9.7 | 14.5 | 0.00 | 0.00 | 0.00 | 56 | 1012.0 |
| 20260507053254 | 2 | 93 | 3.2 | 8.0 | 0.00 | 0.00 | 0.00 | 55 | 1011.9 |
| 20260507052753 | 2 | 14 | 4.8 | 11.3 | 0.00 | 0.00 | 0.00 | 55 | 1012.0 |
| 20260507052249 | 2 | 349 | 1.6 | 6.4 | 0.00 | 0.00 | 0.00 | 55 | 1011.9 |
| 20260507051747 | 2 | 0 | 4.8 | 8.0 | 0.00 | 0.00 | 0.00 | 55 | 1011.9 |
| 20260507051244 | 2 | 342 | 1.6 | 6.4 | 0.00 | 0.00 | 0.00 | 54 | 1012.2 |
| 20260507050741 | 2 | 353 | 3.2 | 6.4 | 0.00 | 0.00 | 0.00 | 54 | 1011.8 |
| 20260507050237 | 2 | 319 | 1.6 | 6.4 | 0.00 | 0.00 | 0.00 | 53 | 1012.0 |
| 20260507045734 | 2 | 345 | 0.0 | 3.2 | 0.00 | 0.00 | 0.00 | 53 | 1011.9 |
| 20260507045230 | 2 | 341 | 1.6 | 3.2 | 0.00 | 0.00 | 0.00 | 53 | 1012.0 |
| 20260507044728 | 2 | 131 | 1.6 | 4.8 | 0.00 | 0.00 | 0.00 | 53 | 1011.9 |
| 20260507044224 | 2 | 142 | 3.2 | 4.8 | 0.00 | 0.00 | 0.00 | 53 | 1011.7 |
| 20260507043720 | 2 | 149 | 4.8 | 4.8 | 0.00 | 0.00 | 0.00 | 53 | 1011.8 |
| 20260507043217 | 2 | 164 | 3.2 | 4.8 | 0.00 | 0.00 | 0.00 | 53 | 1011.7 |
| 20260507042714 | 2 | 156 | 1.6 | 4.8 | 0.00 | 0.00 | 0.00 | 53 | 1011.6 |
| 20260507042208 | 2 | 127 | 3.2 | 4.8 | 0.00 | 0.00 | 0.00 | 53 | 1011.6 |
| 20260507041706 | 2 | 155 | 3.2 | 4.8 | 0.00 | 0.00 | 0.00 | 53 | 1011.5 |
| 20260507041203 | 2 | 174 | 1.6 | 3.2 | 0.00 | 0.00 | 0.00 | 53 | 1011.4 |
| 20260507040700 | 2 | 169 | 3.2 | 4.8 | 0.00 | 0.00 | 0.00 | 53 | 1011.5 |
| 20260507040155 | 2 | 116 | 3.2 | 4.8 | 0.00 | 0.00 | 0.00 | 52 | 1011.4 |
| 20260507035652 | 2 | 128 | 3.2 | 4.8 | 0.00 | 0.00 | 0.00 | 52 | 1011.2 |
| 20260507035148 | 2 | 149 | 1.6 | 4.8 | 0.00 | 0.00 | 0.00 | 52 | 1011.3 |
| 20260507034645 | 2 | 153 | 1.6 | 4.8 | 0.00 | 0.00 | 0.00 | 52 | 1011.5 |
| 20260507034142 | 2 | 114 | 1.6 | 4.8 | 0.00 | 0.00 | 0.00 | 52 | 1011.4 |
| 20260507033641 | 2 | 164 | 3.2 | 4.8 | 0.00 | 0.00 | 0.00 | 52 | 1011.3 |
| 20260507033137 | 2 | 95 | 1.6 | 3.2 | 0.00 | 0.00 | 0.00 | 52 | 1011.4 |
| 20260507032635 | 2 | 116 | 1.6 | 4.8 | 0.00 | 0.00 | 0.00 | 52 | 1011.2 |
| 20260507032131 | 2 | 69 | 1.6 | 4.8 | 0.00 | 0.00 | 0.00 | 52 | 1011.2 |
| 20260507031628 | 2 | 137 | 1.6 | 3.2 | 0.00 | 0.00 | 0.00 | 52 | 1011.3 |
| 20260507031124 | 2 | 159 | 3.2 | 4.8 | 0.00 | 0.00 | 0.00 | 52 | 1011.1 |
| 20260507030621 | 2 | 144 | 3.2 | 4.8 | 0.00 | 0.00 | 0.00 | 52 | 1011.0 |
| 20260507030119 | 3 | 209 | 0.0 | 3.2 | 0.00 | 0.00 | 0.00 | 52 | 1011.1 |
| 20260507025616 | 3 | 13 | 0.0 | 1.6 | 0.00 | 0.00 | 0.00 | 52 | 1011.0 |
| 20260507025113 | 3 | 130 | 1.6 | 4.8 | 0.00 | 0.00 | 0.00 | 52 | 1010.9 |
| 20260507024611 | 3 | 135 | 3.2 | 4.8 | 0.00 | 0.00 | 0.00 | 52 | 1011.0 |
| 20260507024108 | 3 | 129 | 0.0 | 4.8 | 0.00 | 0.00 | 0.00 | 52 | 1010.9 |
| 20260507023603 | 3 | 147 | 1.6 | 4.8 | 0.00 | 0.00 | 0.00 | 52 | 1011.0 |
| 20260507023101 | 3 | 157 | 1.6 | 4.8 | 0.00 | 0.00 | 0.00 | 52 | 1010.7 |
| 20260507022557 | 3 | 148 | 1.6 | 4.8 | 0.00 | 0.00 | 0.00 | 52 | 1010.8 |
| 20260507022052 | 3 | 109 | 1.6 | 4.8 | 0.00 | 0.00 | 0.00 | 51 | 1011.0 |
| 20260507021548 | 3 | 128 | 1.6 | 4.8 | 0.00 | 0.00 | 0.00 | 51 | 1010.8 |
| 20260507021045 | 3 | 134 | 0.0 | 3.2 | 0.00 | 0.00 | 0.00 | 51 | 1010.9 |
| 20260507020543 | 3 | 140 | 3.2 | 3.2 | 0.00 | 0.00 | 0.00 | 51 | 1010.7 |
| 20260507020034 | 3 | 127 | 3.2 | 3.2 | 0.00 | 0.00 | 0.00 | 51 | 1010.8 |
| 20260507015532 | 3 | 81 | 1.6 | 3.2 | 0.00 | 0.00 | 0.00 | 51 | 1010.7 |
| 20260507015030 | 3 | 149 | 1.6 | 4.8 | 0.00 | 0.00 | 0.00 | 51 | 1010.6 |
| 20260507014526 | 3 | 129 | 1.6 | 4.8 | 0.00 | 0.00 | 0.00 | 51 | 1010.6 |
| 20260507014021 | 3 | 134 | 3.2 | 4.8 | 0.00 | 0.00 | 0.00 | 51 | 1010.5 |
| 20260507013518 | 3 | 112 | 1.6 | 3.2 | 0.00 | 0.00 | 0.00 | 51 | 1010.8 |
| 20260507013016 | 4 | 149 | 4.8 | 4.8 | 0.00 | 0.00 | 0.00 | 51 | 1010.5 |
| 20260507012513 | 4 | 142 | 3.2 | 4.8 | 0.00 | 0.00 | 0.00 | 50 | 1010.8 |
| 20260507012009 | 4 | 347 | 0.0 | 3.2 | 0.00 | 0.00 | 0.00 | 50 | 1010.5 |
| 20260507011507 | 4 | 141 | 3.2 | 3.2 | 0.00 | 0.00 | 0.00 | 50 | 1010.4 |
| 20260507011002 | 4 | 111 | 3.2 | 4.8 | 0.00 | 0.00 | 0.00 | 50 | 1010.4 |
| 20260507010456 | 4 | 137 | 0.0 | 3.2 | 0.00 | 0.00 | 0.00 | 50 | 1010.3 |
| 20260507005953 | 4 | 100 | 1.6 | 4.8 | 0.00 | 0.00 | 0.00 | 50 | 1010.3 |
| 20260507005451 | 5 | 156 | 3.2 | 4.8 | 0.00 | 0.00 | 0.00 | 50 | 1010.5 |
| 20260507004947 | 5 | 171 | 3.2 | 4.8 | 0.00 | 0.00 | 0.00 | 50 | 1010.5 |
| 20260507004444 | 5 | 132 | 1.6 | 4.8 | 0.00 | 0.00 | 0.00 | 50 | 1010.2 |
| 20260507003942 | 5 | 146 | 3.2 | 4.8 | 0.00 | 0.00 | 0.00 | 50 | 1010.3 |
| 20260507003436 | 5 | 44 | 0.0 | 3.2 | 0.00 | 0.00 | 0.00 | 50 | 1010.4 |
| 20260507002931 | 5 | 152 | 1.6 | 4.8 | 0.00 | 0.00 | 0.00 | 50 | 1010.3 |
| 20260507002428 | 5 | 133 | 3.2 | 4.8 | 0.00 | 0.00 | 0.00 | 50 | 1010.3 |
| 20260507001925 | 5 | 141 | 3.2 | 4.8 | 0.00 | 0.00 | 0.00 | 49 | 1010.3 |
| 20260507001422 | 5 | 163 | 0.0 | 3.2 | 0.00 | 0.00 | 0.00 | 49 | 1010.1 |
| 20260507000920 | 5 | 185 | 0.0 | 3.2 | 0.00 | 0.00 | 0.00 | 49 | 1010.2 |
| 20260507000414 | 5 | 137 | 3.2 | 4.8 | 0.00 | 0.00 | 0.00 | 49 | 1010.1 |
| 20260506235910 | 5 | 123 | 1.6 | 3.2 | 0.00 | 0.00 | 0.00 | 49 | 1010.1 |
| 20260506235408 | 5 | 147 | 0.0 | 3.2 | 0.00 | 0.00 | 0.00 | 49 | 1010.0 |
| 20260506234903 | 5 | 146 | 0.0 | 3.2 | 0.00 | 0.00 | 0.00 | 49 | 1010.0 |
| 20260506234402 | 5 | 132 | 1.6 | 6.4 | 0.00 | 0.00 | 0.00 | 49 | 1010.0 |
| 20260506233859 | 6 | 124 | 1.6 | 3.2 | 0.00 | 0.00 | 0.00 | 49 | 1009.9 |
| 20260506233354 | 6 | 137 | 3.2 | 3.2 | 0.00 | 0.00 | 0.00 | 49 | 1010.0 |
| 20260506232852 | 6 | 166 | 1.6 | 4.8 | 0.00 | 0.00 | 0.00 | 49 | 1009.9 |
| 20260506232348 | 6 | 133 | 3.2 | 3.2 | 0.00 | 0.00 | 0.00 | 49 | 1010.1 |
| 20260506231844 | 6 | 160 | 1.6 | 1.6 | 0.00 | 0.00 | 0.00 | 49 | 1010.0 |
| 20260506231342 | 6 | 145 | 3.2 | 4.8 | 0.00 | 0.00 | 0.00 | 49 | 1009.9 |
| 20260506230839 | 6 | 154 | 3.2 | 4.8 | 0.00 | 0.00 | 0.00 | 48 | 1009.8 |
| 20260506230336 | 6 | 142 | 3.2 | 4.8 | 0.00 | 0.00 | 0.00 | 48 | 1009.8 |
| 20260506225832 | 6 | 168 | 3.2 | 4.8 | 0.00 | 0.00 | 0.00 | 48 | 1009.9 |
| 20260506225329 | 6 | 118 | 3.2 | 6.4 | 0.00 | 0.00 | 0.00 | 48 | 1009.8 |
| 20260506224826 | 6 | 129 | 3.2 | 6.4 | 0.00 | 0.00 | 0.00 | 48 | 1009.7 |
| 20260506224323 | 6 | 36 | 1.6 | 4.8 | 0.00 | 0.00 | 0.00 | 48 | 1009.8 |
| 20260506223820 | 7 | 171 | 4.8 | 4.8 | 0.00 | 0.00 | 0.00 | 48 | 1009.7 |
| 20260506223314 | 7 | 168 | 3.2 | 4.8 | 0.00 | 0.00 | 0.00 | 48 | 1009.6 |
| 20260506222812 | 7 | 164 | 3.2 | 4.8 | 0.00 | 0.00 | 0.00 | 48 | 1009.6 |
| 20260506222307 | 7 | 171 | 0.0 | 3.2 | 0.00 | 0.00 | 0.00 | 48 | 1009.3 |
| 20260506221800 | 7 | 141 | 1.6 | 4.8 | 0.00 | 0.00 | 0.00 | 48 | 1009.6 |
| 20260506221257 | 7 | 151 | 0.0 | 4.8 | 0.00 | 0.00 | 0.00 | 48 | 1009.6 |
| 20260506220755 | 7 | 149 | 4.8 | 4.8 | 0.00 | 0.00 | 0.00 | 48 | 1009.5 |
| 20260506220249 | 7 | 274 | 0.0 | 6.4 | 0.00 | 0.00 | 0.00 | 48 | 1009.6 |
| 20260506215746 | 7 | 119 | 3.2 | 4.8 | 0.00 | 0.00 | 0.00 | 47 | 1009.6 |
| 20260506215242 | 7 | 168 | 4.8 | 4.8 | 0.00 | 0.00 | 0.00 | 47 | 1009.5 |
| 20260506214733 | 7 | 171 | 3.2 | 4.8 | 0.00 | 0.00 | 0.00 | 47 | 1009.5 |
| 20260506214231 | 8 | 169 | 3.2 | 4.8 | 0.00 | 0.00 | 0.00 | 47 | 1009.4 |
| 20260506213729 | 8 | 161 | 3.2 | 4.8 | 0.00 | 0.00 | 0.00 | 47 | 1009.5 |
| 20260506213226 | 8 | 148 | 3.2 | 4.8 | 0.00 | 0.00 | 0.00 | 47 | 1009.5 |
| 20260506212723 | 8 | 152 | 4.8 | 4.8 | 0.00 | 0.00 | 0.00 | 47 | 1009.5 |
| 20260506212218 | 8 | 161 | 0.0 | 6.4 | 0.00 | 0.00 | 0.00 | 47 | 1009.4 |
| 20260506211713 | 8 | 150 | 1.6 | 3.2 | 0.00 | 0.00 | 0.00 | 47 | 1009.2 |
| 20260506211210 | 8 | 153 | 4.8 | 4.8 | 0.00 | 0.00 | 0.00 | 47 | 1009.4 |
| 20260506210708 | 8 | 177 | 1.6 | 4.8 | 0.00 | 0.00 | 0.00 | 47 | 1009.2 |
| 20260506210204 | 8 | 164 | 1.6 | 4.8 | 0.00 | 0.00 | 0.00 | 47 | 1009.0 |
| 20260506205702 | 9 | 174 | 0.0 | 3.2 | 0.00 | 0.00 | 0.00 | 47 | 1009.2 |
| 20260506205201 | 9 | 160 | 0.0 | 3.2 | 0.00 | 0.00 | 0.00 | 47 | 1009.0 |
| 20260506204659 | 9 | 106 | 1.6 | 3.2 | 0.00 | 0.00 | 0.00 | 46 | 1009.2 |
| 20260506204156 | 9 | 161 | 1.6 | 3.2 | 0.00 | 0.00 | 0.00 | 46 | 1009.1 |
| 20260506203654 | 10 | 102 | 1.6 | 4.8 | 0.00 | 0.00 | 0.00 | 46 | 1009.1 |
| 20260506203151 | 10 | 175 | 0.0 | 3.2 | 0.00 | 0.00 | 0.00 | 46 | 1009.0 |
| 20260506202649 | 10 | 141 | 1.6 | 4.8 | 0.00 | 0.00 | 0.00 | 46 | 1009.1 |
| 20260506202144 | 10 | 154 | 3.2 | 4.8 | 0.00 | 0.00 | 0.00 | 46 | 1009.0 |
| 20260506201642 | 10 | 215 | 0.0 | 3.2 | 0.00 | 0.00 | 0.00 | 46 | 1009.0 |
| 20260506201138 | 10 | 163 | 4.8 | 4.8 | 0.00 | 0.00 | 0.00 | 46 | 1009.1 |
| 20260506200635 | 10 | 176 | 4.8 | 4.8 | 0.00 | 0.00 | 0.00 | 46 | 1008.9 |
| 20260506200132 | 10 | 166 | 1.6 | 4.8 | 0.00 | 0.00 | 0.00 | 46 | 1008.9 |
| 20260506195628 | 10 | 141 | 0.0 | 1.6 | 0.00 | 0.00 | 0.00 | 46 | 1009.0 |
| 20260506195125 | 10 | 185 | 0.0 | 3.2 | 0.00 | 0.00 | 0.00 | 45 | 1008.9 |
| 20260506194622 | 11 | 100 | 1.6 | 3.2 | 0.00 | 0.00 | 0.00 | 45 | 1009.0 |
| 20260506194118 | 11 | 260 | 0.0 | 3.2 | 0.00 | 0.00 | 0.00 | 45 | 1009.0 |
| 20260506193616 | 11 | 139 | 1.6 | 3.2 | 0.00 | 0.00 | 0.00 | 45 | 1008.9 |
| 20260506193114 | 11 | 155 | 3.2 | 4.8 | 0.00 | 0.00 | 0.00 | 45 | 1008.8 |
| 20260506192610 | 11 | 144 | 3.2 | 3.2 | 0.00 | 0.00 | 0.00 | 44 | 1008.6 |
| 20260506192106 | 11 | 146 | 3.2 | 4.8 | 0.00 | 0.00 | 0.00 | 44 | 1008.8 |
| 20260506191603 | 11 | 147 | 3.2 | 4.8 | 0.00 | 0.00 | 0.00 | 44 | 1008.6 |
| 20260506191058 | 11 | 105 | 1.6 | 3.2 | 0.00 | 0.00 | 0.00 | 44 | 1008.6 |
| 20260506190556 | 11 | 106 | 0.0 | 3.2 | 0.00 | 0.00 | 0.00 | 44 | 1008.7 |
| 20260506190053 | 12 | 147 | 0.0 | 3.2 | 0.00 | 0.00 | 0.00 | 44 | 1008.5 |
| 20260506185550 | 12 | 126 | 3.2 | 4.8 | 0.00 | 0.00 | 0.00 | 44 | 1008.7 |
| 20260506185047 | 12 | 129 | 1.6 | 4.8 | 0.00 | 0.00 | 0.00 | 44 | 1008.4 |
| 20260506184544 | 12 | 129 | 0.0 | 3.2 | 0.00 | 0.00 | 0.00 | 43 | 1008.5 |
| 20260506184042 | 12 | 153 | 3.2 | 4.8 | 0.00 | 0.00 | 0.00 | 43 | 1008.2 |
| 20260506183537 | 12 | 172 | 3.2 | 3.2 | 0.00 | 0.00 | 0.00 | 43 | 1008.4 |
| 20260506183034 | 12 | 180 | 1.6 | 4.8 | 0.00 | 0.00 | 0.00 | 43 | 1008.4 |
| 20260506182531 | 12 | 169 | 3.2 | 4.8 | 0.00 | 0.00 | 0.00 | 43 | 1008.3 |
| 20260506182028 | 12 | 193 | 3.2 | 4.8 | 0.00 | 0.00 | 0.00 | 43 | 1008.1 |
| 20260506181526 | 12 | 137 | 1.6 | 3.2 | 0.00 | 0.00 | 0.00 | 43 | 1008.3 |
| 20260506181023 | 13 | 168 | 3.2 | 4.8 | 0.00 | 0.00 | 0.00 | 43 | 1008.0 |
| 20260506180520 | 13 | 162 | 1.6 | 4.8 | 0.00 | 0.00 | 0.00 | 43 | 1008.3 |
| 20260506180016 | 13 | 154 | 3.2 | 4.8 | 0.00 | 0.00 | 0.00 | 44 | 1008.4 |
| 20260506175513 | 13 | 141 | 0.0 | 1.6 | 0.00 | 0.00 | 0.00 | 44 | 1008.3 |
| 20260506175009 | 13 | 212 | 0.0 | 3.2 | 0.00 | 0.00 | 0.00 | 44 | 1008.2 |
| 20260506174508 | 13 | 141 | 0.0 | 4.8 | 0.00 | 0.00 | 0.00 | 44 | 1008.1 |
| 20260506174003 | 13 | 195 | 4.8 | 8.0 | 0.00 | 0.00 | 0.00 | 44 | 1008.1 |
| 20260506173502 | 13 | 183 | 3.2 | 6.4 | 0.00 | 0.00 | 0.00 | 44 | 1008.3 |
| 20260506172958 | 13 | 102 | 0.0 | 3.2 | 0.00 | 0.00 | 0.00 | 44 | 1008.0 |
| 20260506172455 | 13 | 195 | 3.2 | 11.3 | 0.00 | 0.00 | 0.00 | 44 | 1008.3 |
| 20260506171951 | 13 | 181 | 4.8 | 9.7 | 0.00 | 0.00 | 0.00 | 45 | 1008.3 |
| 20260506171449 | 13 | 205 | 3.2 | 11.3 | 0.00 | 0.00 | 0.00 | 44 | 1008.2 |
| 20260506170947 | 13 | 187 | 3.2 | 11.3 | 0.00 | 0.00 | 0.00 | 44 | 1008.4 |
| 20260506170443 | 14 | 5 | 1.6 | 11.3 | 0.00 | 0.00 | 0.00 | 44 | 1008.2 |
| 20260506165942 | 14 | 196 | 3.2 | 8.0 | 0.00 | 0.00 | 0.00 | 44 | 1008.4 |
| 20260506165440 | 14 | 189 | 4.8 | 9.7 | 0.00 | 0.00 | 0.00 | 44 | 1008.5 |
| 20260506164936 | 14 | 209 | 3.2 | 4.8 | 0.00 | 0.00 | 0.00 | 44 | 1008.3 |
| 20260506164432 | 14 | 222 | 1.6 | 8.0 | 0.00 | 0.00 | 0.00 | 43 | 1008.5 |
| 20260506163925 | 14 | 214 | 4.8 | 8.0 | 0.00 | 0.00 | 0.00 | 43 | 1008.2 |
| 20260506163419 | 14 | 16 | 0.0 | 8.0 | 0.00 | 0.00 | 0.00 | 43 | 1008.2 |
| 20260506162909 | 14 | 229 | 9.7 | 9.7 | 0.00 | 0.00 | 0.00 | 43 | 1008.3 |
| 20260506162407 | 14 | 256 | 4.8 | 6.4 | 0.00 | 0.00 | 0.00 | 43 | 1008.3 |
| 20260506161904 | 15 | 311 | 3.2 | 4.8 | 0.00 | 0.00 | 0.00 | 42 | 1008.2 |
| 20260506161401 | 15 | 183 | 9.7 | 14.5 | 0.00 | 0.00 | 0.00 | 42 | 1008.3 |
| 20260506160853 | 15 | 260 | 4.8 | 16.1 | 0.00 | 0.00 | 0.00 | 42 | 1008.4 |
| 20260506160349 | 15 | 229 | 14.5 | 16.1 | 0.00 | 0.00 | 0.00 | 43 | 1008.4 |
| 20260506155843 | 14 | 167 | 4.8 | 20.9 | 0.00 | 0.00 | 0.00 | 43 | 1008.4 |
| 20260506155339 | 14 | 207 | 8.0 | 17.7 | 0.00 | 0.00 | 0.00 | 43 | 1008.5 |
| 20260506153456 | 14 | 242 | 4.8 | 16.1 | 0.00 | 0.00 | 0.00 | 42 | 1008.6 |
| 20260506152954 | 14 | 180 | 4.8 | 17.7 | 0.00 | 0.00 | 0.00 | 42 | 1008.4 |
| 20260506152450 | 14 | 267 | 4.8 | 11.3 | 0.00 | 0.00 | 0.00 | 42 | 1008.3 |
| 20260506151949 | 14 | 223 | 11.3 | 22.5 | 0.00 | 0.00 | 0.00 | 41 | 1008.6 |
| 20260506151446 | 14 | 191 | 4.8 | 14.5 | 0.00 | 0.00 | 0.00 | 43 | 1008.6 |
| 20260506150944 | 14 | 202 | 9.7 | 19.3 | 0.00 | 0.00 | 0.00 | 43 | 1008.6 |
| 20260506150439 | 14 | 228 | 3.2 | 12.9 | 0.00 | 0.00 | 0.00 | 43 | 1008.7 |
| 20260506145937 | 14 | 224 | 8.0 | 19.3 | 0.00 | 0.00 | 0.00 | 43 | 1008.5 |
| 20260506145433 | 14 | 250 | 3.2 | 14.5 | 0.00 | 0.00 | 0.00 | 43 | 1008.5 |
| 20260506144930 | 14 | 172 | 11.3 | 20.9 | 0.00 | 0.00 | 0.00 | 44 | 1008.5 |
| 20260506144426 | 13 | 120 | 4.8 | 12.9 | 0.00 | 0.00 | 0.00 | 44 | 1008.7 |
| 20260506143925 | 13 | 147 | 4.8 | 12.9 | 0.00 | 0.00 | 0.00 | 44 | 1008.5 |
| 20260506143422 | 13 | 255 | 6.4 | 14.5 | 0.00 | 0.00 | 0.00 | 43 | 1008.5 |
| 20260506142920 | 13 | 229 | 4.8 | 8.0 | 0.00 | 0.00 | 0.00 | 44 | 1008.6 |
| 20260506142418 | 13 | 292 | 6.4 | 19.3 | 0.00 | 0.00 | 0.00 | 44 | 1008.6 |
| 20260506141916 | 13 | 165 | 11.3 | 17.7 | 0.00 | 0.00 | 0.00 | 44 | 1008.6 |
| 20260506141414 | 13 | 298 | 6.4 | 22.5 | 0.00 | 0.00 | 0.00 | 44 | 1008.5 |
| 20260506140912 | 13 | 167 | 6.4 | 12.9 | 0.00 | 0.00 | 0.00 | 44 | 1008.4 |
| 20260506140408 | 13 | 207 | 11.3 | 25.7 | 0.00 | 0.00 | 0.00 | 43 | 1008.5 |
| 20260506135905 | 13 | 205 | 24.1 | 29.0 | 0.00 | 0.00 | 0.00 | 44 | 1008.4 |
| 20260506135402 | 13 | 182 | 6.4 | 25.7 | 0.00 | 0.00 | 0.00 | 47 | 1008.7 |
| 20260506134858 | 13 | 251 | 3.2 | 24.1 | 0.00 | 0.00 | 0.00 | 47 | 1008.5 |
| 20260506134354 | 13 | 173 | 4.8 | 20.9 | 0.00 | 0.00 | 0.00 | 47 | 1008.5 |
| 20260506133852 | 13 | 217 | 4.8 | 11.3 | 0.00 | 0.00 | 0.00 | 47 | 1008.7 |
| 20260506133348 | 13 | 95 | 1.6 | 24.1 | 0.00 | 0.00 | 0.00 | 47 | 1008.7 |
| 20260506132845 | 12 | 228 | 8.0 | 12.9 | 0.00 | 0.00 | 0.00 | 48 | 1008.7 |
| 20260506132342 | 12 | 155 | 4.8 | 11.3 | 0.00 | 0.00 | 0.00 | 49 | 1008.7 |
| 20260506131840 | 12 | 240 | 6.4 | 14.5 | 0.00 | 0.00 | 0.00 | 49 | 1008.5 |
| 20260506131336 | 12 | 209 | 8.0 | 20.9 | 0.00 | 0.00 | 0.00 | 49 | 1008.8 |
| 20260506130834 | 12 | 275 | 6.4 | 14.5 | 0.00 | 0.00 | 0.00 | 50 | 1008.8 |
| 20260506130330 | 12 | 180 | 11.3 | 22.5 | 0.00 | 0.00 | 0.00 | 50 | 1008.6 |
| 20260506125828 | 12 | 288 | 6.4 | 14.5 | 0.00 | 0.00 | 0.00 | 50 | 1008.8 |
| 20260506125326 | 12 | 256 | 4.8 | 14.5 | 0.00 | 0.00 | 0.00 | 50 | 1009.1 |
| 20260506124824 | 11 | 230 | 11.3 | 20.9 | 0.00 | 0.00 | 0.00 | 49 | 1008.6 |
| 20260506124321 | 11 | 153 | 4.8 | 20.9 | 0.00 | 0.00 | 0.00 | 49 | 1008.8 |
| 20260506123818 | 11 | 191 | 4.8 | 16.1 | 0.00 | 0.00 | 0.00 | 49 | 1008.7 |
| 20260506123317 | 11 | 189 | 4.8 | 17.7 | 0.00 | 0.00 | 0.00 | 50 | 1008.9 |
| 20260506122814 | 11 | 208 | 12.9 | 14.5 | 0.00 | 0.00 | 0.00 | 51 | 1008.6 |
| 20260506122310 | 11 | 239 | 4.8 | 22.5 | 0.00 | 0.00 | 0.00 | 52 | 1009.0 |
| 20260506121809 | 11 | 216 | 6.4 | 16.1 | 0.00 | 0.00 | 0.00 | 52 | 1008.9 |
| 20260506121305 | 10 | 180 | 9.7 | 16.1 | 0.00 | 0.00 | 0.00 | 53 | 1008.9 |
| 20260506120802 | 10 | 218 | 8.0 | 11.3 | 0.00 | 0.00 | 0.00 | 53 | 1009.0 |
| 20260506120300 | 10 | 198 | 11.3 | 24.1 | 0.00 | 0.00 | 0.00 | 53 | 1009.0 |
| 20260506115758 | 10 | 275 | 6.4 | 14.5 | 0.00 | 0.00 | 0.00 | 54 | 1009.0 |
| 20260506115256 | 10 | 277 | 8.0 | 16.1 | 0.00 | 0.00 | 0.00 | 54 | 1009.0 |
| 20260506114753 | 10 | 272 | 6.4 | 9.7 | 0.00 | 0.00 | 0.00 | 54 | 1009.0 |
| 20260506114251 | 10 | 290 | 6.4 | 11.3 | 0.00 | 0.00 | 0.00 | 54 | 1008.9 |
| 20260506113749 | 10 | 340 | 3.2 | 16.1 | 0.00 | 0.00 | 0.00 | 54 | 1009.0 |
| 20260506113246 | 10 | 199 | 4.8 | 17.7 | 0.00 | 0.00 | 0.00 | 54 | 1008.8 |
| 20260506112742 | 10 | 294 | 4.8 | 9.7 | 0.00 | 0.00 | 0.00 | 54 | 1009.1 |
| 20260506112240 | 10 | 204 | 6.4 | 16.1 | 0.00 | 0.00 | 0.00 | 53 | 1009.1 |
| 20260506111737 | 10 | 71 | 3.2 | 9.7 | 0.00 | 0.00 | 0.00 | 54 | 1009.1 |
| 20260506111235 | 10 | 247 | 4.8 | 11.3 | 0.00 | 0.00 | 0.00 | 54 | 1009.0 |
| 20260506110732 | 9 | 173 | 4.8 | 14.5 | 0.00 | 0.00 | 0.00 | 55 | 1009.0 |
| 20260506110230 | 8 | 171 | 4.8 | 24.1 | 0.00 | 0.00 | 0.00 | 56 | 1008.9 |
| 20260506105726 | 8 | 312 | 9.7 | 12.9 | 0.00 | 0.00 | 0.00 | 57 | 1008.9 |
| 20260506105223 | 8 | 213 | 6.4 | 12.9 | 0.00 | 0.00 | 0.00 | 57 | 1009.0 |
| 20260506104721 | 8 | 223 | 4.8 | 9.7 | 0.00 | 0.00 | 0.00 | 57 | 1008.9 |
| 20260506104218 | 8 | 277 | 6.4 | 6.4 | 0.00 | 0.00 | 0.00 | 57 | 1009.0 |
| 20260506103715 | 8 | 260 | 3.2 | 12.9 | 0.00 | 0.00 | 0.00 | 57 | 1009.1 |
| 20260506103212 | 8 | 39 | 0.0 | 4.8 | 0.00 | 0.00 | 0.00 | 57 | 1009.1 |
| 20260506102710 | 8 | 207 | 4.8 | 14.5 | 0.00 | 0.00 | 0.00 | 57 | 1009.0 |
| 20260506102208 | 8 | 205 | 6.4 | 8.0 | 0.00 | 0.00 | 0.00 | 57 | 1008.9 |
| 20260506101704 | 8 | 312 | 4.8 | 11.3 | 0.00 | 0.00 | 0.00 | 57 | 1009.1 |
| 20260506101201 | 7 | 136 | 3.2 | 6.4 | 0.00 | 0.00 | 0.00 | 57 | 1009.2 |
| 20260506100659 | 7 | 264 | 6.4 | 9.7 | 0.00 | 0.00 | 0.00 | 57 | 1009.2 |
| 20260506100157 | 7 | 166 | 9.7 | 12.9 | 0.00 | 0.00 | 0.00 | 58 | 1009.3 |
| 20260506095656 | 7 | 26 | 6.4 | 9.7 | 0.00 | 0.00 | 0.00 | 58 | 1009.1 |
| 20260506095152 | 7 | 210 | 6.4 | 9.7 | 0.00 | 0.00 | 0.00 | 58 | 1009.2 |
| 20260506094649 | 7 | 201 | 8.0 | 9.7 | 0.00 | 0.00 | 0.00 | 58 | 1009.2 |
| 20260506094147 | 7 | 215 | 4.8 | 6.4 | 0.00 | 0.00 | 0.00 | 58 | 1009.2 |
| 20260506093645 | 7 | 249 | 0.0 | 6.4 | 0.00 | 0.00 | 0.00 | 58 | 1009.2 |
| 20260506093142 | 7 | 154 | 3.2 | 9.7 | 0.00 | 0.00 | 0.00 | 58 | 1009.4 |
| 20260506092640 | 7 | 266 | 3.2 | 6.4 | 0.00 | 0.00 | 0.00 | 59 | 1009.2 |
| 20260506092137 | 6 | 289 | 1.6 | 11.3 | 0.00 | 0.00 | 0.00 | 59 | 1009.3 |
| 20260506091634 | 6 | 211 | 3.2 | 9.7 | 0.00 | 0.00 | 0.00 | 59 | 1009.1 |
| 20260506091131 | 6 | 289 | 6.4 | 12.9 | 0.00 | 0.00 | 0.00 | 60 | 1009.3 |
| 20260506090630 | 6 | 334 | 8.0 | 9.7 | 0.00 | 0.00 | 0.00 | 60 | 1009.2 |
| 20260506090126 | 6 | 88 | 11.3 | 14.5 | 0.00 | 0.00 | 0.00 | 60 | 1009.4 |
| 20260506085623 | 6 | 46 | 4.8 | 11.3 | 0.00 | 0.00 | 0.00 | 60 | 1009.4 |
| 20260506085119 | 6 | 336 | 4.8 | 8.0 | 0.00 | 0.00 | 0.00 | 61 | 1009.4 |
| 20260506084616 | 6 | 338 | 4.8 | 9.7 | 0.00 | 0.00 | 0.00 | 61 | 1009.3 |
| 20260506084113 | 6 | 338 | 6.4 | 8.0 | 0.00 | 0.00 | 0.00 | 61 | 1009.4 |
| 20260506083610 | 6 | 289 | 4.8 | 9.7 | 0.00 | 0.00 | 0.00 | 61 | 1009.6 |
| 20260506083107 | 5 | 199 | 8.0 | 9.7 | 0.00 | 0.00 | 0.00 | 62 | 1009.6 |
| 20260506082604 | 5 | 239 | 6.4 | 8.0 | 0.00 | 0.00 | 0.00 | 61 | 1009.3 |
| 20260506082059 | 5 | 310 | 3.2 | 12.9 | 0.00 | 0.00 | 0.00 | 61 | 1009.6 |
| 20260506081558 | 5 | 213 | 3.2 | 11.3 | 0.00 | 0.00 | 0.00 | 61 | 1009.5 |
| 20260506081055 | 5 | 107 | 3.2 | 6.4 | 0.00 | 0.00 | 0.00 | 61 | 1009.6 |
| 20260506080552 | 5 | 17 | 4.8 | 11.3 | 0.00 | 0.00 | 0.00 | 61 | 1009.5 |
| 20260506073033 | 4 | 344 | 4.8 | 9.7 | 0.00 | 0.00 | 0.00 | 60 | 1009.6 |
| 20260506072530 | 4 | 41 | 3.2 | 8.0 | 0.00 | 0.00 | 0.00 | 60 | 1009.4 |
| 20260506072028 | 3 | 49 | 0.0 | 6.4 | 0.00 | 0.00 | 0.00 | 60 | 1009.7 |
| 20260506071525 | 3 | 345 | 0.0 | 8.0 | 0.00 | 0.00 | 0.00 | 60 | 1009.6 |
| 20260506071022 | 3 | 330 | 4.8 | 8.0 | 0.00 | 0.00 | 0.00 | 60 | 1009.7 |
| 20260506070519 | 3 | 13 | 3.2 | 6.4 | 0.00 | 0.00 | 0.00 | 60 | 1009.8 |